createdAt,value
2023-05-11T00:00:23.658Z,13.73
2023-05-11T00:02:52.134Z,13.74
2023-05-11T00:05:22.048Z,13.73
2023-05-11T00:07:50.765Z,13.70
2023-05-11T00:10:19.663Z,13.66
2023-05-11T00:12:48.411Z,13.65
2023-05-11T00:15:16.852Z,13.63
2023-05-11T00:17:46.883Z,13.63
2023-05-11T00:20:15.382Z,13.64
2023-05-11T00:22:45.340Z,13.63
2023-05-11T00:25:14.222Z,13.64
2023-05-11T00:27:45.988Z,13.63
2023-05-11T00:30:16.345Z,13.64
2023-05-11T00:32:46.745Z,13.65
2023-05-11T00:35:15.131Z,13.67
2023-05-11T00:37:48.355Z,13.67
2023-05-11T00:40:16.993Z,13.68
2023-05-11T00:42:45.496Z,13.69
2023-05-11T00:45:14.185Z,13.70
2023-05-11T00:47:43.424Z,13.72
2023-05-11T00:50:13.855Z,13.71
2023-05-11T00:52:43.199Z,13.69
2023-05-11T00:55:12.788Z,13.69
2023-05-11T00:57:41.511Z,13.68
2023-05-11T01:00:11.362Z,13.67
2023-05-11T01:02:40.576Z,13.66
2023-05-11T01:05:10.057Z,13.63
2023-05-11T01:07:49.075Z,13.64
2023-05-11T01:10:29.698Z,13.62
2023-05-11T01:13:06.817Z,13.63
2023-05-11T01:15:40.467Z,13.62
2023-05-11T01:18:18.541Z,13.61
2023-05-11T01:20:49.890Z,13.59
2023-05-11T01:23:46.765Z,13.55
2023-05-11T01:26:48.524Z,13.53
2023-05-11T01:29:49.898Z,13.52
2023-05-11T01:32:25.105Z,13.54
2023-05-11T01:35:02.591Z,13.53
2023-05-11T01:37:33.869Z,13.56
2023-05-11T01:40:10.944Z,13.58
2023-05-11T01:42:45.929Z,13.57
2023-05-11T01:45:16.763Z,13.54
2023-05-11T01:47:50.666Z,13.54
2023-05-11T01:50:21.969Z,13.52
2023-05-11T01:52:52.364Z,13.53
2023-05-11T01:55:23.868Z,13.51
2023-05-11T01:57:55.850Z,13.50
2023-05-11T02:00:25.177Z,13.52
2023-05-11T02:02:56.148Z,13.54
2023-05-11T02:05:26.005Z,13.54
2023-05-11T02:07:57.272Z,13.54
2023-05-11T02:10:28.269Z,13.55
2023-05-11T02:12:57.781Z,13.56
2023-05-11T02:15:27.799Z,13.53
2023-05-11T02:17:58.989Z,13.56
2023-05-11T02:20:28.772Z,13.61
2023-05-11T02:22:58.571Z,13.63
2023-05-11T02:25:28.144Z,13.62
2023-05-11T02:27:58.925Z,13.64
2023-05-11T02:30:30.430Z,13.65
2023-05-11T02:33:07.319Z,13.66
2023-05-11T02:35:43.005Z,13.64
2023-05-11T02:38:12.716Z,13.62
2023-05-11T02:40:48.591Z,13.59
2023-05-11T02:43:25.663Z,13.55
2023-05-11T02:46:00.036Z,13.51
2023-05-11T02:48:33.984Z,13.49
2023-05-11T02:51:03.912Z,13.47
2023-05-11T02:53:34.997Z,13.45
2023-05-11T02:56:03.817Z,13.44
2023-05-11T02:58:32.883Z,13.43
2023-05-11T03:01:02.296Z,13.41
2023-05-11T03:03:32.659Z,13.38
2023-05-11T03:06:01.397Z,13.38
2023-05-11T03:08:29.857Z,13.37
2023-05-11T03:11:00.599Z,13.38
2023-05-11T03:13:30.164Z,13.38
2023-05-11T03:16:00.848Z,13.39
2023-05-11T03:18:31.627Z,13.41
2023-05-11T03:21:03.144Z,13.38
2023-05-11T03:23:32.313Z,13.38
2023-05-11T03:26:01.644Z,13.36
2023-05-11T03:28:31.413Z,13.38
2023-05-11T03:31:00.415Z,13.40
2023-05-11T03:33:28.970Z,13.41
2023-05-11T03:36:02.694Z,13.40
2023-05-11T03:38:32.444Z,13.41
2023-05-11T03:41:02.201Z,13.41
2023-05-11T03:43:33.406Z,13.42
2023-05-11T03:46:03.864Z,13.44
2023-05-11T03:48:33.534Z,13.46
2023-05-11T03:51:05.725Z,13.48
2023-05-11T03:53:35.075Z,13.49
2023-05-11T03:56:04.819Z,13.50
2023-05-11T03:58:34.105Z,13.51
2023-05-11T04:01:02.504Z,13.52
2023-05-11T04:03:31.096Z,13.54
2023-05-11T04:05:59.563Z,13.54
2023-05-11T04:08:29.789Z,13.54
2023-05-11T04:10:58.121Z,13.57
2023-05-11T04:13:27.052Z,13.58
2023-05-11T04:15:55.961Z,13.59
2023-05-11T04:18:24.850Z,13.59
2023-05-11T04:20:53.212Z,13.60
2023-05-11T04:23:22.828Z,13.61
2023-05-11T04:25:56.395Z,13.63
2023-05-11T04:28:27.830Z,13.63
2023-05-11T04:30:57.064Z,13.63
2023-05-11T04:33:26.245Z,13.65
2023-05-11T04:35:56.222Z,13.67
2023-05-11T04:38:25.606Z,13.71
2023-05-11T04:40:56.026Z,13.72
2023-05-11T04:43:25.160Z,13.72
2023-05-11T04:45:53.564Z,13.73
2023-05-11T04:48:22.401Z,13.75
2023-05-11T04:50:51.163Z,13.74
2023-05-11T04:53:20.469Z,13.75
2023-05-11T04:55:48.985Z,13.77
2023-05-11T04:58:20.875Z,13.76
2023-05-11T05:00:49.271Z,13.78
2023-05-11T05:03:17.885Z,13.80
2023-05-11T05:05:46.249Z,13.82
2023-05-11T05:08:14.745Z,13.85
2023-05-11T05:10:43.146Z,13.86
2023-05-11T05:13:11.550Z,13.90
2023-05-11T05:15:41.315Z,13.91
2023-05-11T05:18:09.909Z,13.95
2023-05-11T05:20:38.341Z,14.00
2023-05-11T05:23:06.908Z,14.04
2023-05-11T05:25:35.405Z,14.07
2023-05-11T05:28:03.792Z,14.11
2023-05-11T05:30:32.366Z,14.14
2023-05-11T05:33:02.184Z,14.17
2023-05-11T05:35:30.728Z,14.23
2023-05-11T05:37:59.073Z,14.29
2023-05-11T05:40:29.093Z,14.36
2023-05-11T05:42:57.546Z,14.44
2023-05-11T05:45:26.123Z,14.50
2023-05-11T05:47:55.162Z,14.55
2023-05-11T05:50:25.119Z,14.59
2023-05-11T05:52:55.259Z,14.63
2023-05-11T05:55:24.761Z,14.69
2023-05-11T05:57:53.742Z,14.72
2023-05-11T06:00:22.704Z,14.74
2023-05-11T06:02:51.464Z,14.77
2023-05-11T06:05:20.076Z,14.80
2023-05-11T06:08:01.781Z,14.77
2023-05-11T06:10:39.070Z,14.71
2023-05-11T06:13:08.939Z,14.68
2023-05-11T06:15:37.339Z,14.68
2023-05-11T06:18:06.268Z,14.73
2023-05-11T06:20:34.730Z,14.78
2023-05-11T06:23:04.656Z,14.83
2023-05-11T06:25:35.977Z,14.91
2023-05-11T06:28:04.764Z,14.97
2023-05-11T06:30:33.211Z,15.06
2023-05-11T06:33:01.662Z,15.12
2023-05-11T06:35:30.405Z,15.15
2023-05-11T06:37:59.292Z,15.17
2023-05-11T06:40:30.173Z,15.22
2023-05-11T06:42:58.646Z,15.29
2023-05-11T06:45:27.873Z,15.38
2023-05-11T06:47:56.610Z,15.49
2023-05-11T06:50:27.899Z,15.57
2023-05-11T06:52:56.721Z,15.66
2023-05-11T06:55:27.833Z,15.74
2023-05-11T06:57:58.143Z,15.81
2023-05-11T07:00:27.156Z,15.84
2023-05-11T07:02:56.097Z,15.87
2023-05-11T07:05:24.707Z,15.90
2023-05-11T07:07:53.189Z,15.94
2023-05-11T07:10:21.813Z,16.02
2023-05-11T07:12:51.263Z,16.15
2023-05-11T07:15:21.218Z,16.26
2023-05-11T07:17:50.175Z,16.30
2023-05-11T07:20:19.185Z,16.37
2023-05-11T07:22:47.694Z,16.46
2023-05-11T07:25:16.089Z,16.53
2023-05-11T07:27:44.573Z,16.50
2023-05-11T07:30:13.973Z,16.52
2023-05-11T07:32:46.855Z,16.50
2023-05-11T07:35:16.255Z,16.53
2023-05-11T07:37:45.351Z,16.55
2023-05-11T07:40:13.994Z,16.61
2023-05-11T07:42:42.716Z,16.69
2023-05-11T07:45:12.058Z,16.73
2023-05-11T07:47:40.431Z,16.81
2023-05-11T07:50:11.550Z,16.90
2023-05-11T07:52:39.916Z,17.00
2023-05-11T07:55:09.626Z,17.11
2023-05-11T07:57:38.151Z,17.22
2023-05-11T08:00:10.990Z,17.28
2023-05-11T08:02:40.382Z,17.37
2023-05-11T08:05:11.711Z,17.50
2023-05-11T08:07:41.634Z,17.55
2023-05-11T08:10:11.523Z,17.56
2023-05-11T08:12:43.323Z,17.57
2023-05-11T08:15:12.910Z,17.65
2023-05-11T08:17:43.300Z,17.77
2023-05-11T08:20:14.610Z,17.89
2023-05-11T08:22:43.156Z,17.98
2023-05-11T08:25:12.203Z,17.97
2023-05-11T08:27:40.891Z,18.00
2023-05-11T08:30:11.973Z,18.09
2023-05-11T08:32:50.486Z,18.17
2023-05-11T08:35:27.786Z,18.25
2023-05-11T08:37:56.280Z,18.32
2023-05-11T08:40:28.466Z,18.37
2023-05-11T08:42:58.559Z,18.45
2023-05-11T08:45:28.224Z,18.57
2023-05-11T08:47:57.911Z,18.65
2023-05-11T08:50:28.641Z,18.74
2023-05-11T08:52:57.293Z,18.83
2023-05-11T08:55:27.710Z,18.84
2023-05-11T08:57:59.850Z,18.87
2023-05-11T09:00:29.530Z,18.92
2023-05-11T09:02:59.806Z,18.93
2023-05-11T09:05:30.134Z,18.89
2023-05-11T09:08:03.270Z,18.91
2023-05-11T09:10:32.491Z,18.92
2023-05-11T09:13:01.100Z,18.97
2023-05-11T09:15:29.660Z,19.07
2023-05-11T09:18:05.998Z,19.26
2023-05-11T09:20:36.564Z,19.46
2023-05-11T09:23:04.891Z,19.54
2023-05-11T09:25:35.134Z,19.60
2023-05-11T09:28:03.918Z,19.66
2023-05-11T09:30:32.678Z,19.74
2023-05-11T09:33:02.464Z,19.78
2023-05-11T09:35:33.373Z,19.94
2023-05-11T09:38:06.180Z,20.23
2023-05-11T09:40:37.874Z,20.47
2023-05-11T09:43:18.509Z,20.77
2023-05-11T09:45:48.758Z,21.16
2023-05-11T09:48:28.803Z,21.51
2023-05-11T09:51:09.056Z,21.79
2023-05-11T09:53:43.573Z,21.95
2023-05-11T09:56:12.765Z,22.12
2023-05-11T09:58:49.547Z,22.41
2023-05-11T10:01:20.473Z,22.52
2023-05-11T10:03:51.848Z,22.40
2023-05-11T10:06:21.087Z,22.22
2023-05-11T10:08:51.397Z,22.02
2023-05-11T10:11:26.011Z,21.92
2023-05-11T10:13:55.332Z,21.82
2023-05-11T10:16:25.056Z,21.56
2023-05-11T10:18:53.861Z,21.33
2023-05-11T10:21:23.193Z,21.18
2023-05-11T10:23:53.759Z,21.06
2023-05-11T10:26:22.640Z,20.98
2023-05-11T10:28:52.245Z,20.90
2023-05-11T10:31:24.282Z,20.93
2023-05-11T10:33:53.283Z,20.94
2023-05-11T10:36:25.232Z,21.00
2023-05-11T10:38:56.450Z,21.07
2023-05-11T10:41:49.037Z,21.17
2023-05-11T10:44:52.080Z,21.41
2023-05-11T10:48:07.046Z,21.62
2023-05-11T10:50:58.659Z,21.79
2023-05-11T10:53:59.330Z,21.88
2023-05-11T10:56:58.161Z,21.88
2023-05-11T11:00:06.992Z,21.96
2023-05-11T11:02:37.789Z,22.19
2023-05-11T11:05:10.950Z,22.67
2023-05-11T11:08:04.931Z,23.07
2023-05-11T11:10:40.438Z,23.28
2023-05-11T11:13:11.974Z,23.27
2023-05-11T11:16:13.253Z,23.41
2023-05-11T11:18:45.226Z,23.37
2023-05-11T11:21:16.701Z,23.39
2023-05-11T11:23:50.508Z,23.49
2023-05-11T11:26:58.701Z,23.83
2023-05-11T11:29:28.767Z,23.96
2023-05-11T11:32:36.288Z,23.94
2023-05-11T11:35:08.135Z,23.80
2023-05-11T11:38:11.082Z,23.72
2023-05-11T11:40:50.560Z,23.80
2023-05-11T11:43:25.106Z,23.78
2023-05-11T11:45:56.199Z,23.74
2023-05-11T11:48:37.341Z,23.79
2023-05-11T11:51:11.073Z,23.80
2023-05-11T11:54:03.975Z,23.73
2023-05-11T11:56:49.415Z,23.73
2023-05-11T11:59:20.293Z,23.99
2023-05-11T12:01:55.581Z,24.34
2023-05-11T12:04:59.736Z,24.66
2023-05-11T12:07:34.536Z,24.67
2023-05-11T12:10:05.815Z,24.52
2023-05-11T12:12:36.680Z,24.79
2023-05-11T12:15:10.820Z,25.12
2023-05-11T12:17:42.712Z,25.27
2023-05-11T12:20:17.612Z,25.20
2023-05-11T12:22:49.381Z,25.33
2023-05-11T12:25:20.257Z,25.47
2023-05-11T12:27:55.450Z,25.58
2023-05-11T12:30:28.543Z,25.69
2023-05-11T12:32:59.735Z,25.98
2023-05-11T12:35:30.677Z,26.19
2023-05-11T12:38:02.860Z,26.45
2023-05-11T12:40:33.280Z,26.41
2023-05-11T12:43:04.461Z,26.20
2023-05-11T12:45:35.394Z,26.06
2023-05-11T12:48:05.076Z,25.78
2023-05-11T12:50:45.635Z,25.62
2023-05-11T12:53:16.486Z,25.43
2023-05-11T12:55:44.929Z,25.45
2023-05-11T12:58:16.294Z,25.29
2023-05-11T13:00:58.447Z,25.18
2023-05-11T13:03:30.062Z,25.31
2023-05-11T13:06:09.194Z,25.56
2023-05-11T13:08:41.171Z,25.91
2023-05-11T13:11:23.543Z,25.97
2023-05-11T13:13:52.533Z,25.77
2023-05-11T13:16:31.124Z,25.63
2023-05-11T13:19:02.221Z,25.46
2023-05-11T13:21:33.742Z,25.30
2023-05-11T13:24:04.265Z,25.26
2023-05-11T13:26:34.249Z,25.26
2023-05-11T13:29:10.730Z,25.22
2023-05-11T13:31:47.869Z,25.07
2023-05-11T13:34:17.359Z,24.96
2023-05-11T13:36:48.633Z,25.03
2023-05-11T13:39:18.099Z,25.17
2023-05-11T13:41:47.872Z,25.37
2023-05-11T13:44:17.239Z,25.33
2023-05-11T13:46:46.995Z,25.27
2023-05-11T13:49:15.832Z,25.44
2023-05-11T13:51:44.107Z,25.65
2023-05-11T13:54:13.261Z,25.75
2023-05-11T13:56:41.824Z,25.80
2023-05-11T13:59:10.478Z,25.75
2023-05-11T14:01:38.951Z,25.63
2023-05-11T14:04:08.734Z,25.43
2023-05-11T14:06:37.897Z,25.33
2023-05-11T14:09:06.359Z,25.37
2023-05-11T14:11:35.120Z,25.48
2023-05-11T14:14:04.340Z,25.66
2023-05-11T14:16:32.990Z,25.80
2023-05-11T14:19:01.365Z,25.87
2023-05-11T14:21:32.587Z,25.87
2023-05-11T14:24:11.478Z,25.91
2023-05-11T14:26:41.618Z,25.90
2023-05-11T14:29:10.103Z,25.92
2023-05-11T14:31:39.124Z,25.88
2023-05-11T14:34:07.768Z,25.81
2023-05-11T14:36:38.188Z,25.82
2023-05-11T14:39:06.634Z,26.12
2023-05-11T14:41:35.019Z,26.70
2023-05-11T14:44:03.390Z,27.14
2023-05-11T14:46:31.822Z,27.07
2023-05-11T14:49:00.789Z,26.65
2023-05-11T14:51:29.415Z,26.16
2023-05-11T14:53:59.244Z,25.74
2023-05-11T14:56:28.078Z,25.47
2023-05-11T14:58:57.001Z,25.18
2023-05-11T15:01:25.510Z,24.78
2023-05-11T15:03:54.027Z,24.25
2023-05-11T15:06:23.612Z,23.92
2023-05-11T15:08:54.897Z,23.60
2023-05-11T15:11:25.307Z,23.16
2023-05-11T15:13:54.021Z,22.89
2023-05-11T15:16:22.855Z,22.63
2023-05-11T15:18:51.622Z,22.40
2023-05-11T15:21:25.402Z,22.17
2023-05-11T15:23:53.744Z,22.00
2023-05-11T15:26:24.040Z,21.92
2023-05-11T15:28:52.786Z,21.79
2023-05-11T15:31:22.327Z,21.53
2023-05-11T15:33:51.202Z,21.22
2023-05-11T15:36:19.881Z,21.02
2023-05-11T15:38:48.241Z,20.90
2023-05-11T15:41:17.617Z,20.82
2023-05-11T15:43:47.447Z,20.68
2023-05-11T15:46:15.820Z,20.59
2023-05-11T15:48:44.246Z,20.53
2023-05-11T15:51:12.987Z,20.47
2023-05-11T15:53:42.506Z,20.44
2023-05-11T15:56:11.654Z,20.38
2023-05-11T15:58:40.261Z,20.32
2023-05-11T16:01:10.272Z,20.29
2023-05-11T16:03:38.859Z,20.32
2023-05-11T16:06:08.173Z,20.35
2023-05-11T16:08:36.705Z,20.30
2023-05-11T16:11:06.074Z,20.23
2023-05-11T16:13:34.390Z,20.24
2023-05-11T16:16:02.996Z,20.29
2023-05-11T16:18:32.744Z,20.20
2023-05-11T16:21:01.576Z,20.19
2023-05-11T16:23:30.234Z,20.21
2023-05-11T16:26:00.750Z,20.15
2023-05-11T16:28:29.222Z,20.02
2023-05-11T16:30:59.332Z,19.84
2023-05-11T16:33:28.186Z,19.69
2023-05-11T16:35:58.093Z,19.52
2023-05-11T16:38:26.522Z,19.42
2023-05-11T16:40:55.424Z,19.33
2023-05-11T16:43:23.812Z,19.23
2023-05-11T16:45:52.793Z,19.17
2023-05-11T16:48:21.730Z,19.12
2023-05-11T16:50:50.931Z,19.08
2023-05-11T16:53:22.305Z,19.02
2023-05-11T16:55:51.020Z,18.94
2023-05-11T16:58:20.571Z,18.87
2023-05-11T17:00:49.913Z,18.79
2023-05-11T17:03:19.828Z,18.73
2023-05-11T17:05:48.814Z,18.70
2023-05-11T17:08:17.416Z,18.63
2023-05-11T17:10:47.349Z,18.55
2023-05-11T17:13:15.945Z,18.48
2023-05-11T17:15:44.457Z,18.46
2023-05-11T17:18:13.841Z,18.40
2023-05-11T17:20:44.340Z,18.23
2023-05-11T17:23:12.901Z,18.07
2023-05-11T17:25:42.774Z,17.94
2023-05-11T17:28:14.323Z,17.88
2023-05-11T17:30:48.572Z,17.78
2023-05-11T17:33:17.810Z,17.67
2023-05-11T17:35:46.525Z,17.61
2023-05-11T17:38:15.013Z,17.50
2023-05-11T17:40:44.482Z,17.42
2023-05-11T17:43:14.228Z,17.35
2023-05-11T17:45:42.716Z,17.24
2023-05-11T17:48:11.726Z,17.18
2023-05-11T17:50:40.284Z,17.17
2023-05-11T17:53:08.748Z,17.10
2023-05-11T17:55:40.431Z,17.01
2023-05-11T17:58:08.796Z,16.94
2023-05-11T18:00:38.716Z,16.85
2023-05-11T18:03:07.407Z,16.79
2023-05-11T18:05:48.650Z,16.72
2023-05-11T18:08:17.696Z,16.60
2023-05-11T18:10:46.852Z,16.47
2023-05-11T18:13:17.293Z,16.42
2023-05-11T18:15:47.878Z,16.28
2023-05-11T18:18:16.314Z,16.18
2023-05-11T18:20:46.480Z,16.11
2023-05-11T18:23:15.243Z,16.07
2023-05-11T18:25:44.126Z,16.02
2023-05-11T18:28:12.631Z,15.98
2023-05-11T18:30:41.091Z,15.90
2023-05-11T18:33:11.634Z,15.87
2023-05-11T18:35:41.704Z,15.83
2023-05-11T18:38:10.125Z,15.79
2023-05-11T18:40:38.483Z,15.78
2023-05-11T18:43:06.862Z,15.76
2023-05-11T18:45:35.303Z,15.70
2023-05-11T18:48:04.714Z,15.62
2023-05-11T18:50:34.784Z,15.59
2023-05-11T18:53:03.242Z,15.56
2023-05-11T18:55:41.117Z,15.49
2023-05-11T18:58:20.418Z,15.38
2023-05-11T19:00:49.644Z,15.28
2023-05-11T19:03:20.947Z,15.21
2023-05-11T19:05:52.084Z,15.17
2023-05-11T19:08:20.693Z,15.16
2023-05-11T19:10:49.509Z,15.11
2023-05-11T19:13:18.645Z,15.07
2023-05-11T19:15:47.454Z,15.01
2023-05-11T19:18:17.264Z,15.01
2023-05-11T19:20:45.995Z,14.97
2023-05-11T19:23:15.915Z,14.98
2023-05-11T19:25:44.468Z,14.97
2023-05-11T19:28:12.911Z,14.94
2023-05-11T19:30:41.480Z,14.92
2023-05-11T19:33:09.909Z,14.89
2023-05-11T19:35:38.359Z,14.87
2023-05-11T19:38:07.321Z,14.87
2023-05-11T19:40:46.019Z,14.88
2023-05-11T19:43:15.249Z,14.87
2023-05-11T19:45:45.478Z,14.86
2023-05-11T19:48:14.620Z,14.87
2023-05-11T19:50:43.333Z,14.89
2023-05-11T19:53:12.371Z,14.90
2023-05-11T19:55:42.304Z,14.88
2023-05-11T19:58:10.889Z,14.86
2023-05-11T20:00:41.070Z,14.82
2023-05-11T20:03:09.584Z,14.78
2023-05-11T20:05:38.421Z,14.80
2023-05-11T20:08:07.835Z,14.80
2023-05-11T20:10:37.795Z,14.85
2023-05-11T20:13:08.314Z,14.81
2023-05-11T20:15:36.829Z,14.78
2023-05-11T20:18:05.524Z,14.76
2023-05-11T20:20:34.718Z,14.75
2023-05-11T20:23:03.521Z,14.75
2023-05-11T20:25:32.133Z,14.74
2023-05-11T20:28:00.950Z,14.71
2023-05-11T20:30:30.787Z,14.63
2023-05-11T20:35:31.163Z,14.59
2023-05-11T20:37:59.629Z,14.57
2023-05-11T20:40:28.540Z,14.53
2023-05-11T20:42:56.910Z,14.52
2023-05-11T20:45:25.502Z,14.52
2023-05-11T20:47:55.496Z,14.50
2023-05-11T20:50:24.740Z,14.47
2023-05-11T20:52:53.317Z,14.43
2023-05-11T20:55:22.434Z,14.44
2023-05-11T20:57:50.894Z,14.44
2023-05-11T21:00:19.848Z,14.43
2023-05-11T21:02:48.734Z,14.40
2023-05-11T21:05:19.540Z,14.41
2023-05-11T21:07:48.002Z,14.39
2023-05-11T21:10:16.967Z,14.38
2023-05-11T21:12:45.514Z,14.36
2023-05-11T21:15:14.236Z,14.35
2023-05-11T21:17:42.970Z,14.31
2023-05-11T21:20:12.641Z,14.23
2023-05-11T21:22:42.460Z,14.13
2023-05-11T21:25:12.762Z,14.04
2023-05-11T21:27:41.564Z,13.95
2023-05-11T21:30:11.182Z,13.91
2023-05-11T21:32:39.692Z,13.89
2023-05-11T21:35:09.581Z,13.86
2023-05-11T21:37:38.115Z,13.83
2023-05-11T21:40:12.091Z,13.81
2023-05-11T21:42:40.396Z,13.77
2023-05-11T21:45:10.607Z,13.72
2023-05-11T21:47:39.452Z,13.70
2023-05-11T21:50:10.991Z,13.67
2023-05-11T21:52:39.708Z,13.63
2023-05-11T21:55:11.101Z,13.64
2023-05-11T21:57:39.647Z,13.64
2023-05-11T22:00:11.128Z,13.66
2023-05-11T22:02:41.471Z,13.63
2023-05-11T22:05:11.449Z,13.62
2023-05-11T22:07:40.098Z,13.61
2023-05-11T22:10:13.632Z,13.58
2023-05-11T22:12:44.124Z,13.57
2023-05-11T22:15:14.438Z,13.55
2023-05-11T22:17:45.164Z,13.56
2023-05-11T22:20:14.433Z,13.56
2023-05-11T22:22:43.474Z,13.54
2023-05-11T22:25:16.672Z,13.53
2023-05-11T22:27:46.264Z,13.52
2023-05-11T22:30:15.119Z,13.45
2023-05-11T22:32:48.680Z,13.43
2023-05-11T22:35:17.578Z,13.44
2023-05-11T22:37:46.075Z,13.41
2023-05-11T22:40:16.282Z,13.39
2023-05-11T22:42:44.919Z,13.38
2023-05-11T22:45:13.561Z,13.33
2023-05-11T22:47:42.307Z,13.31
2023-05-11T22:50:12.201Z,13.29
2023-05-11T22:52:40.558Z,13.30
2023-05-11T22:55:10.662Z,13.30
2023-05-11T22:57:40.381Z,13.27
2023-05-11T23:00:10.993Z,13.29
2023-05-11T23:02:39.579Z,13.28
2023-05-11T23:05:09.324Z,13.29
2023-05-11T23:07:37.944Z,13.28
2023-05-11T23:10:07.750Z,13.30
2023-05-11T23:12:36.298Z,13.30
2023-05-11T23:15:08.481Z,13.31
2023-05-11T23:17:37.104Z,13.33
2023-05-11T23:20:06.936Z,13.33
2023-05-11T23:22:35.423Z,13.32
2023-05-11T23:25:04.029Z,13.33
2023-05-11T23:27:32.461Z,13.33
2023-05-11T23:30:00.873Z,13.32
2023-05-11T23:32:30.842Z,13.32
2023-05-11T23:34:59.307Z,13.32
2023-05-11T23:37:28.063Z,13.31
2023-05-11T23:39:56.566Z,13.31
2023-05-11T23:42:25.228Z,13.33
2023-05-11T23:44:53.904Z,13.33
2023-05-11T23:47:22.523Z,13.37
2023-05-11T23:49:52.514Z,13.40
2023-05-11T23:52:28.066Z,13.41
2023-05-11T23:54:57.116Z,13.39
2023-05-11T23:57:26.077Z,13.39
2023-05-11T23:59:54.505Z,13.41
